Hill Church, Pennsylvania
Current Conditions -  °F | °C
As of 6:54 AM on Thursday 29 Jan 2015 (Local Time) from KPTW Reporting Station
Clear Clear  
Wind Chill:   Ceiling: Unl
Heat Index:   Visibility: 10mi
Dew Point:   Wind: 0mph
Humidity: 73%   Direction: NA
Pressure: 30.33"   Gusts: NA
Location:  40.3481°N, 75.6818°W
Report Text: KPTW 291154Z AUTO 00000KT 10SM CLR M14/M18 A3033 RMK AO2 SLP275 T11391178 11078 21144 53006
Loading
Personal Weather Stations






























Interactive Weather Map New forecast layout! Learn more

10-Day Weather Forecast

Advertisements
Track Severe Weather on mobile